sensor_id;sensor_type;location;lat;lon;timestamp;pressure;altitude;pressure_sealevel;temperature;humidity
39265;BME280;42646;51.910;7.724;2024-01-11T00:00:40;102595.81;;;-6.12;84.27
39265;BME280;42646;51.910;7.724;2024-01-11T00:03:08;102594.94;;;-6.15;83.96
39265;BME280;42646;51.910;7.724;2024-01-11T00:05:36;102599.22;;;-6.19;83.83
39265;BME280;42646;51.910;7.724;2024-01-11T00:08:04;102593.13;;;-6.23;83.47
39265;BME280;42646;51.910;7.724;2024-01-11T00:10:31;102597.41;;;-6.26;83.54
39265;BME280;42646;51.910;7.724;2024-01-11T00:13:00;102591.38;;;-6.28;83.80
39265;BME280;42646;51.910;7.724;2024-01-11T00:15:28;102593.06;;;-6.30;83.81
39265;BME280;42646;51.910;7.724;2024-01-11T00:17:56;102593.03;;;-6.32;83.86
39265;BME280;42646;51.910;7.724;2024-01-11T00:20:24;102590.44;;;-6.33;84.01
39265;BME280;42646;51.910;7.724;2024-01-11T00:22:51;102593.03;;;-6.33;84.50
39265;BME280;42646;51.910;7.724;2024-01-11T00:25:19;102595.59;;;-6.35;85.01
39265;BME280;42646;51.910;7.724;2024-01-11T00:27:47;102601.59;;;-6.39;85.24
39265;BME280;42646;51.910;7.724;2024-01-11T00:30:16;102597.25;;;-6.41;85.84
39265;BME280;42646;51.910;7.724;2024-01-11T00:32:44;102588.59;;;-6.43;85.88
39265;BME280;42646;51.910;7.724;2024-01-11T00:35:12;102590.31;;;-6.46;85.97
39265;BME280;42646;51.910;7.724;2024-01-11T00:37:40;102589.41;;;-6.49;86.06
39265;BME280;42646;51.910;7.724;2024-01-11T00:40:08;102582.50;;;-6.50;85.94
39265;BME280;42646;51.910;7.724;2024-01-11T00:42:36;102578.13;;;-6.53;86.22
39265;BME280;42646;51.910;7.724;2024-01-11T00:45:04;102586.75;;;-6.55;86.13
39265;BME280;42646;51.910;7.724;2024-01-11T00:47:33;102582.41;;;-6.58;86.20
39265;BME280;42646;51.910;7.724;2024-01-11T00:50:01;102584.94;;;-6.61;86.21
39265;BME280;42646;51.910;7.724;2024-01-11T00:52:29;102590.13;;;-6.62;86.33
39265;BME280;42646;51.910;7.724;2024-01-11T00:54:56;102586.59;;;-6.66;86.07
39265;BME280;42646;51.910;7.724;2024-01-11T00:57:24;102583.16;;;-6.68;86.17
39265;BME280;42646;51.910;7.724;2024-01-11T00:59:51;102589.13;;;-6.70;86.30
39265;BME280;42646;51.910;7.724;2024-01-11T01:02:19;102585.69;;;-6.73;86.14
39265;BME280;42646;51.910;7.724;2024-01-11T01:04:48;102584.78;;;-6.75;86.03
39265;BME280;42646;51.910;7.724;2024-01-11T01:07:16;102579.56;;;-6.78;85.73
39265;BME280;42646;51.910;7.724;2024-01-11T01:09:44;102583.00;;;-6.82;85.87
39265;BME280;42646;51.910;7.724;2024-01-11T01:12:11;102583.81;;;-6.83;85.52
39265;BME280;42646;51.910;7.724;2024-01-11T01:14:39;102580.34;;;-6.85;85.70
39265;BME280;42646;51.910;7.724;2024-01-11T01:17:07;102580.28;;;-6.88;85.23
39265;BME280;42646;51.910;7.724;2024-01-11T01:19:34;102584.59;;;-6.90;85.34
39265;BME280;42646;51.910;7.724;2024-01-11T01:22:04;102587.16;;;-6.91;85.46
39265;BME280;42646;51.910;7.724;2024-01-11T01:24:32;102579.34;;;-6.94;85.26
39265;BME280;42646;51.910;7.724;2024-01-11T01:26:59;102592.25;;;-6.97;85.66
39265;BME280;42646;51.910;7.724;2024-01-11T01:29:27;102593.97;;;-7.00;85.36
39265;BME280;42646;51.910;7.724;2024-01-11T01:31:55;102601.69;;;-7.01;85.42
39265;BME280;42646;51.910;7.724;2024-01-11T01:34:22;102601.66;;;-7.04;85.46
39265;BME280;42646;51.910;7.724;2024-01-11T01:36:50;102605.91;;;-7.06;85.50
39265;BME280;42646;51.910;7.724;2024-01-11T01:39:19;102613.66;;;-7.08;85.58
39265;BME280;42646;51.910;7.724;2024-01-11T01:41:47;102620.53;;;-7.10;85.69
39265;BME280;42646;51.910;7.724;2024-01-11T01:44:14;102624.00;;;-7.11;85.62
39265;BME280;42646;51.910;7.724;2024-01-11T01:46:42;102628.25;;;-7.13;85.56
39265;BME280;42646;51.910;7.724;2024-01-11T01:49:10;102625.66;;;-7.14;85.56
39265;BME280;42646;51.910;7.724;2024-01-11T01:51:39;102623.06;;;-7.14;85.56
39265;BME280;42646;51.910;7.724;2024-01-11T01:54:07;102623.91;;;-7.15;85.73
39265;BME280;42646;51.910;7.724;2024-01-11T01:56:36;102630.81;;;-7.14;86.11
39265;BME280;42646;51.910;7.724;2024-01-11T01:59:05;102623.91;;;-7.17;86.63
39265;BME280;42646;51.910;7.724;2024-01-11T02:01:33;102624.75;;;-7.16;86.49
39265;BME280;42646;51.910;7.724;2024-01-11T02:04:01;102628.22;;;-7.16;86.86
39265;BME280;42646;51.910;7.724;2024-01-11T02:06:32;102629.03;;;-7.18;87.23
39265;BME280;42646;51.910;7.724;2024-01-11T02:09:02;102622.13;;;-7.19;86.96
39265;BME280;42646;51.910;7.724;2024-01-11T02:11:30;102612.63;;;-7.20;87.25
39265;BME280;42646;51.910;7.724;2024-01-11T02:13:59;102605.72;;;-7.21;87.23
39265;BME280;42646;51.910;7.724;2024-01-11T02:16:27;102604.81;;;-7.23;87.52
39265;BME280;42646;51.910;7.724;2024-01-11T02:18:55;102608.25;;;-7.24;87.39
39265;BME280;42646;51.910;7.724;2024-01-11T02:21:24;102602.19;;;-7.27;87.40
39265;BME280;42646;51.910;7.724;2024-01-11T02:24:01;102597.88;;;-7.29;87.41
39265;BME280;42646;51.910;7.724;2024-01-11T02:26:29;102591.78;;;-7.30;87.52
39265;BME280;42646;51.910;7.724;2024-01-11T02:28:56;102588.34;;;-7.32;87.30
39265;BME280;42646;51.910;7.724;2024-01-11T02:31:24;102592.63;;;-7.34;87.00
39265;BME280;42646;51.910;7.724;2024-01-11T02:33:53;102596.06;;;-7.35;87.09
39265;BME280;42646;51.910;7.724;2024-01-11T02:36:21;102597.72;;;-7.37;86.73
39265;BME280;42646;51.910;7.724;2024-01-11T02:38:50;102599.44;;;-7.37;86.70
39265;BME280;42646;51.910;7.724;2024-01-11T02:41:20;102614.09;;;-7.38;86.96
39265;BME280;42646;51.910;7.724;2024-01-11T02:43:48;102614.94;;;-7.40;86.88
39265;BME280;42646;51.910;7.724;2024-01-11T02:46:17;102620.06;;;-7.42;86.89
39265;BME280;42646;51.910;7.724;2024-01-11T02:48:44;102623.50;;;-7.41;87.03
39265;BME280;42646;51.910;7.724;2024-01-11T02:51:12;102628.66;;;-7.41;87.00
39265;BME280;42646;51.910;7.724;2024-01-11T02:53:40;102618.34;;;-7.41;86.98
39265;BME280;42646;51.910;7.724;2024-01-11T02:56:07;102594.19;;;-7.42;86.98
39265;BME280;42646;51.910;7.724;2024-01-11T02:58:36;102602.81;;;-7.43;87.27
39265;BME280;42646;51.910;7.724;2024-01-11T03:01:04;102602.81;;;-7.43;87.51
39265;BME280;42646;51.910;7.724;2024-01-11T03:03:32;102606.25;;;-7.44;87.73
39265;BME280;42646;51.910;7.724;2024-01-11T03:06:00;102602.78;;;-7.44;87.70
39265;BME280;42646;51.910;7.724;2024-01-11T03:08:27;102614.84;;;-7.46;87.58
39265;BME280;42646;51.910;7.724;2024-01-11T03:10:55;102614.78;;;-7.48;87.57
39265;BME280;42646;51.910;7.724;2024-01-11T03:13:23;102615.66;;;-7.47;87.79
39265;BME280;42646;51.910;7.724;2024-01-11T03:15:52;102607.88;;;-7.49;87.83
39265;BME280;42646;51.910;7.724;2024-01-11T03:18:19;102607.88;;;-7.50;87.34
39265;BME280;42646;51.910;7.724;2024-01-11T03:20:47;102606.13;;;-7.51;87.68
39265;BME280;42646;51.910;7.724;2024-01-11T03:23:15;102613.03;;;-7.52;87.42
39265;BME280;42646;51.910;7.724;2024-01-11T03:25:43;102609.56;;;-7.53;87.48
39265;BME280;42646;51.910;7.724;2024-01-11T03:28:10;102612.09;;;-7.54;87.46
39265;BME280;42646;51.910;7.724;2024-01-11T03:30:38;102609.50;;;-7.56;87.39
39265;BME280;42646;51.910;7.724;2024-01-11T03:33:07;102620.69;;;-7.57;87.70
39265;BME280;42646;51.910;7.724;2024-01-11T03:35:35;102620.69;;;-7.58;87.35
39265;BME280;42646;51.910;7.724;2024-01-11T03:38:05;102624.97;;;-7.59;87.28
39265;BME280;42646;51.910;7.724;2024-01-11T03:40:33;102624.09;;;-7.59;87.57
39265;BME280;42646;51.910;7.724;2024-01-11T03:43:00;102625.81;;;-7.60;87.45
39265;BME280;42646;51.910;7.724;2024-01-11T03:45:28;102631.81;;;-7.61;87.61
39265;BME280;42646;51.910;7.724;2024-01-11T03:47:56;102631.81;;;-7.62;87.52
39265;BME280;42646;51.910;7.724;2024-01-11T03:50:25;102629.22;;;-7.62;87.79
39265;BME280;42646;51.910;7.724;2024-01-11T03:52:52;102630.06;;;-7.63;87.76
39265;BME280;42646;51.910;7.724;2024-01-11T03:55:20;102623.16;;;-7.64;87.47
39265;BME280;42646;51.910;7.724;2024-01-11T03:57:48;102621.41;;;-7.65;87.52
39265;BME280;42646;51.910;7.724;2024-01-11T04:00:16;102637.75;;;-7.66;87.48
39265;BME280;42646;51.910;7.724;2024-01-11T04:02:44;102659.28;;;-7.66;87.53
39265;BME280;42646;51.910;7.724;2024-01-11T04:05:12;102649.81;;;-7.65;87.94
39265;BME280;42646;51.910;7.724;2024-01-11T04:07:41;102641.25;;;-7.64;87.68
39265;BME280;42646;51.910;7.724;2024-01-11T04:10:09;102649.00;;;-7.64;87.88
39265;BME280;42646;51.910;7.724;2024-01-11T04:12:36;102643.78;;;-7.66;88.13
39265;BME280;42646;51.910;7.724;2024-01-11T04:15:05;102643.78;;;-7.66;88.44
39265;BME280;42646;51.910;7.724;2024-01-11T04:17:32;102649.81;;;-7.67;88.49
39265;BME280;42646;51.910;7.724;2024-01-11T04:20:00;102640.31;;;-7.68;88.53
39265;BME280;42646;51.910;7.724;2024-01-11T04:22:28;102654.94;;;-7.70;88.37
39265;BME280;42646;51.910;7.724;2024-01-11T04:24:57;102649.78;;;-7.68;88.37
39265;BME280;42646;51.910;7.724;2024-01-11T04:27:25;102654.06;;;-7.70;88.39
39265;BME280;42646;51.910;7.724;2024-01-11T04:29:52;102662.69;;;-7.70;88.29
39265;BME280;42646;51.910;7.724;2024-01-11T04:32:20;102663.56;;;-7.69;88.36
39265;BME280;42646;51.910;7.724;2024-01-11T04:34:48;102676.47;;;-7.69;88.60
39265;BME280;42646;51.910;7.724;2024-01-11T04:37:16;102677.31;;;-7.70;88.52
39265;BME280;42646;51.910;7.724;2024-01-11T04:39:44;102671.25;;;-7.71;88.88
39265;BME280;42646;51.910;7.724;2024-01-11T04:42:14;102679.06;;;-7.69;88.88
39265;BME280;42646;51.910;7.724;2024-01-11T04:44:41;102668.72;;;-7.69;88.74
39265;BME280;42646;51.910;7.724;2024-01-11T04:47:09;102662.69;;;-7.70;88.78
39265;BME280;42646;51.910;7.724;2024-01-11T04:49:37;102671.31;;;-7.69;89.23
39265;BME280;42646;51.910;7.724;2024-01-11T04:52:06;102663.50;;;-7.71;89.27
39265;BME280;42646;51.910;7.724;2024-01-11T04:54:34;102657.47;;;-7.71;89.21
39265;BME280;42646;51.910;7.724;2024-01-11T04:57:02;102657.47;;;-7.71;89.28
39265;BME280;42646;51.910;7.724;2024-01-11T04:59:32;102660.91;;;-7.72;89.42
39265;BME280;42646;51.910;7.724;2024-01-11T05:01:59;102662.63;;;-7.73;89.63
39265;BME280;42646;51.910;7.724;2024-01-11T05:04:27;102670.38;;;-7.73;89.23
39265;BME280;42646;51.910;7.724;2024-01-11T05:06:55;102660.03;;;-7.74;89.35
39265;BME280;42646;51.910;7.724;2024-01-11T05:09:22;102655.72;;;-7.74;89.46
39265;BME280;42646;51.910;7.724;2024-01-11T05:11:50;102666.91;;;-7.73;89.09
39265;BME280;42646;51.910;7.724;2024-01-11T05:14:18;102672.09;;;-7.73;89.46
39265;BME280;42646;51.910;7.724;2024-01-11T05:16:47;102667.75;;;-7.74;89.24
39265;BME280;42646;51.910;7.724;2024-01-11T05:19:14;102667.75;;;-7.74;89.40
39265;BME280;42646;51.910;7.724;2024-01-11T05:21:42;102663.44;;;-7.75;89.65
39265;BME280;42646;51.910;7.724;2024-01-11T05:24:10;102658.31;;;-7.72;89.50
39265;BME280;42646;51.910;7.724;2024-01-11T05:26:38;102641.16;;;-7.70;89.77
39265;BME280;42646;51.910;7.724;2024-01-11T05:29:05;102649.78;;;-7.68;89.96
39265;BME280;42646;51.910;7.724;2024-01-11T05:31:33;102651.53;;;-7.67;90.13
39265;BME280;42646;51.910;7.724;2024-01-11T05:34:02;102642.03;;;-7.68;90.49
39265;BME280;42646;51.910;7.724;2024-01-11T05:36:30;102639.44;;;-7.70;90.80
39265;BME280;42646;51.910;7.724;2024-01-11T05:38:58;102638.56;;;-7.70;91.15
39265;BME280;42646;51.910;7.724;2024-01-11T05:41:25;102632.47;;;-7.72;90.89
39265;BME280;42646;51.910;7.724;2024-01-11T05:43:53;102647.97;;;-7.72;90.83
39265;BME280;42646;51.910;7.724;2024-01-11T05:46:21;102666.91;;;-7.73;90.98
39265;BME280;42646;51.910;7.724;2024-01-11T05:48:49;102675.53;;;-7.73;90.77
39265;BME280;42646;51.910;7.724;2024-01-11T05:51:18;102671.19;;;-7.75;90.74
39265;BME280;42646;51.910;7.724;2024-01-11T05:53:46;102681.56;;;-7.74;90.63
39265;BME280;42646;51.910;7.724;2024-01-11T05:56:13;102688.44;;;-7.74;90.71
39265;BME280;42646;51.910;7.724;2024-01-11T05:58:41;102682.41;;;-7.75;90.70
39265;BME280;42646;51.910;7.724;2024-01-11T06:01:09;102691.03;;;-7.74;91.17
39265;BME280;42646;51.910;7.724;2024-01-11T06:03:37;102688.41;;;-7.76;90.81
39265;BME280;42646;51.910;7.724;2024-01-11T06:06:06;102687.56;;;-7.76;91.13
39265;BME280;42646;51.910;7.724;2024-01-11T06:08:36;102686.63;;;-7.78;90.96
39265;BME280;42646;51.910;7.724;2024-01-11T06:11:04;102696.97;;;-7.78;90.74
39265;BME280;42646;51.910;7.724;2024-01-11T06:13:34;102693.53;;;-7.77;90.74
39265;BME280;42646;51.910;7.724;2024-01-11T06:16:02;102694.38;;;-7.78;90.86
39265;BME280;42646;51.910;7.724;2024-01-11T06:18:29;102688.38;;;-7.77;90.92
39265;BME280;42646;51.910;7.724;2024-01-11T06:20:57;102691.81;;;-7.77;91.22
39265;BME280;42646;51.910;7.724;2024-01-11T06:23:25;102699.56;;;-7.77;91.25
39265;BME280;42646;51.910;7.724;2024-01-11T06:25:54;102703.00;;;-7.78;91.62
39265;BME280;42646;51.910;7.724;2024-01-11T06:28:22;102718.50;;;-7.78;91.34
39265;BME280;42646;51.910;7.724;2024-01-11T06:30:49;102717.63;;;-7.80;91.32
39265;BME280;42646;51.910;7.724;2024-01-11T06:33:17;102723.66;;;-7.80;91.33
39265;BME280;42646;51.910;7.724;2024-01-11T06:35:46;102722.78;;;-7.80;91.51
39265;BME280;42646;51.910;7.724;2024-01-11T06:38:14;102736.56;;;-7.80;91.32
39265;BME280;42646;51.910;7.724;2024-01-11T06:40:42;102727.97;;;-7.77;91.61
39265;BME280;42646;51.910;7.724;2024-01-11T06:43:11;102710.81;;;-7.75;91.94
39265;BME280;42646;51.910;7.724;2024-01-11T06:45:39;102723.75;;;-7.73;91.85
39265;BME280;42646;51.910;7.724;2024-01-11T06:48:06;102720.31;;;-7.72;91.98
39265;BME280;42646;51.910;7.724;2024-01-11T06:50:34;102710.91;;;-7.70;92.12
39265;BME280;42646;51.910;7.724;2024-01-11T06:53:02;102704.91;;;-7.69;92.46
39265;BME280;42646;51.910;7.724;2024-01-11T06:55:31;102701.47;;;-7.67;92.55
39265;BME280;42646;51.910;7.724;2024-01-11T06:57:58;102700.59;;;-7.69;92.50
39265;BME280;42646;51.910;7.724;2024-01-11T07:00:29;102710.97;;;-7.66;92.80
39265;BME280;42646;51.910;7.724;2024-01-11T07:02:57;102710.16;;;-7.65;92.99
39265;BME280;42646;51.910;7.724;2024-01-11T07:05:24;102705.84;;;-7.64;92.89
39265;BME280;42646;51.910;7.724;2024-01-11T07:07:52;102708.47;;;-7.63;92.82
39265;BME280;42646;51.910;7.724;2024-01-11T07:10:20;102699.84;;;-7.63;93.00
39265;BME280;42646;51.910;7.724;2024-01-11T07:12:48;102698.09;;;-7.64;92.51
39265;BME280;42646;51.910;7.724;2024-01-11T07:15:16;102698.13;;;-7.63;92.55
39265;BME280;42646;51.910;7.724;2024-01-11T07:17:45;102698.13;;;-7.63;92.80
39265;BME280;42646;51.910;7.724;2024-01-11T07:20:13;102689.50;;;-7.62;92.29
39265;BME280;42646;51.910;7.724;2024-01-11T07:22:43;102688.66;;;-7.62;92.53
39265;BME280;42646;51.910;7.724;2024-01-11T07:25:10;102678.34;;;-7.61;92.30
39265;BME280;42646;51.910;7.724;2024-01-11T07:27:38;102681.78;;;-7.60;92.55
39265;BME280;42646;51.910;7.724;2024-01-11T07:30:07;102685.22;;;-7.60;92.40
39265;BME280;42646;51.910;7.724;2024-01-11T07:32:35;102673.19;;;-7.59;92.51
39265;BME280;42646;51.910;7.724;2024-01-11T07:35:05;102676.66;;;-7.59;92.63
39265;BME280;42646;51.910;7.724;2024-01-11T07:37:38;102705.09;;;-7.59;92.50
39265;BME280;42646;51.910;7.724;2024-01-11T07:40:07;102699.94;;;-7.57;92.72
39265;BME280;42646;51.910;7.724;2024-01-11T07:42:37;102702.53;;;-7.56;92.51
39265;BME280;42646;51.910;7.724;2024-01-11T07:45:06;102695.66;;;-7.55;92.78
39265;BME280;42646;51.910;7.724;2024-01-11T07:47:34;102690.47;;;-7.57;92.54
39265;BME280;42646;51.910;7.724;2024-01-11T07:50:01;102712.03;;;-7.55;92.23
39265;BME280;42646;51.910;7.724;2024-01-11T07:52:31;102712.91;;;-7.54;92.29
39265;BME280;42646;51.910;7.724;2024-01-11T07:54:58;102712.06;;;-7.53;92.33
39265;BME280;42646;51.910;7.724;2024-01-11T07:57:32;102719.84;;;-7.51;92.59
39265;BME280;42646;51.910;7.724;2024-01-11T08:00:00;102724.19;;;-7.50;92.33
39265;BME280;42646;51.910;7.724;2024-01-11T08:02:38;102736.25;;;-7.48;92.73
39265;BME280;42646;51.910;7.724;2024-01-11T08:05:06;102734.56;;;-7.47;92.71
39265;BME280;42646;51.910;7.724;2024-01-11T08:07:35;102734.59;;;-7.46;92.53
39265;BME280;42646;51.910;7.724;2024-01-11T08:10:04;102744.97;;;-7.44;93.04
39265;BME280;42646;51.910;7.724;2024-01-11T08:12:33;102751.06;;;-7.41;92.81
39265;BME280;42646;51.910;7.724;2024-01-11T08:15:01;102739.91;;;-7.38;93.01
39265;BME280;42646;51.910;7.724;2024-01-11T08:17:28;102745.94;;;-7.36;92.95
39265;BME280;42646;51.910;7.724;2024-01-11T08:19:56;102746.03;;;-7.33;93.18
39265;BME280;42646;51.910;7.724;2024-01-11T08:22:24;102746.06;;;-7.30;93.51
39265;BME280;42646;51.910;7.724;2024-01-11T08:24:54;102747.84;;;-7.26;93.67
39265;BME280;42646;51.910;7.724;2024-01-11T08:27:22;102745.34;;;-7.21;93.72
39265;BME280;42646;51.910;7.724;2024-01-11T08:29:50;102755.72;;;-7.18;93.98
39265;BME280;42646;51.910;7.724;2024-01-11T08:32:17;102767.03;;;-7.13;94.47
39265;BME280;42646;51.910;7.724;2024-01-11T08:34:57;102765.41;;;-7.08;94.27
39265;BME280;42646;51.910;7.724;2024-01-11T08:37:25;102764.63;;;-7.03;94.51
39265;BME280;42646;51.910;7.724;2024-01-11T08:39:54;102750.91;;;-6.98;94.69
39265;BME280;42646;51.910;7.724;2024-01-11T08:42:22;102749.25;;;-6.93;94.95
39265;BME280;42646;51.910;7.724;2024-01-11T08:44:50;102746.72;;;-6.89;95.03
39265;BME280;42646;51.910;7.724;2024-01-11T08:47:18;102750.25;;;-6.85;95.32
39265;BME280;42646;51.910;7.724;2024-01-11T08:49:46;102752.06;;;-6.80;95.36
39265;BME280;42646;51.910;7.724;2024-01-11T08:52:13;102759.91;;;-6.75;95.91
39265;BME280;42646;51.910;7.724;2024-01-11T08:54:41;102757.41;;;-6.67;95.79
39265;BME280;42646;51.910;7.724;2024-01-11T08:57:10;102765.28;;;-6.61;96.27
39265;BME280;42646;51.910;7.724;2024-01-11T08:59:38;102769.69;;;-6.54;96.37
39265;BME280;42646;51.910;7.724;2024-01-11T09:02:05;102769.78;;;-6.47;96.22
39265;BME280;42646;51.910;7.724;2024-01-11T09:04:43;102793.16;;;-6.40;96.69
39265;BME280;42646;51.910;7.724;2024-01-11T09:07:11;102785.53;;;-6.31;97.07
39265;BME280;42646;51.910;7.724;2024-01-11T09:09:39;102777.00;;;-6.24;97.04
39265;BME280;42646;51.910;7.724;2024-01-11T09:12:20;102781.47;;;-6.14;97.39
39265;BME280;42646;51.910;7.724;2024-01-11T09:14:48;102780.69;;;-6.05;97.55
39265;BME280;42646;51.910;7.724;2024-01-11T09:17:16;102786.00;;;-5.98;97.43
39265;BME280;42646;51.910;7.724;2024-01-11T09:19:43;102789.50;;;-5.89;97.29
39265;BME280;42646;51.910;7.724;2024-01-11T09:22:11;102791.34;;;-5.79;97.59
39265;BME280;42646;51.910;7.724;2024-01-11T09:24:39;102801.00;;;-5.69;97.58
39265;BME280;42646;51.910;7.724;2024-01-11T09:27:07;102800.22;;;-5.59;97.77
39265;BME280;42646;51.910;7.724;2024-01-11T09:29:36;102796.88;;;-5.49;97.53
39265;BME280;42646;51.910;7.724;2024-01-11T09:32:04;102801.28;;;-5.40;97.87
39265;BME280;42646;51.910;7.724;2024-01-11T09:34:32;102799.66;;;-5.32;97.76
39265;BME280;42646;51.910;7.724;2024-01-11T09:37:00;102799.72;;;-5.26;97.83
39265;BME280;42646;51.910;7.724;2024-01-11T09:39:27;102789.41;;;-5.18;97.38
39265;BME280;42646;51.910;7.724;2024-01-11T09:41:58;102793.78;;;-5.11;97.40
39265;BME280;42646;51.910;7.724;2024-01-11T09:44:26;102793.88;;;-5.03;97.51
39265;BME280;42646;51.910;7.724;2024-01-11T09:46:57;102793.94;;;-4.94;96.96
39265;BME280;42646;51.910;7.724;2024-01-11T09:49:25;102791.38;;;-4.88;97.16
39265;BME280;42646;51.910;7.724;2024-01-11T09:51:54;102778.44;;;-4.80;96.79
39265;BME280;42646;51.910;7.724;2024-01-11T09:54:25;102765.56;;;-4.71;96.02
39265;BME280;42646;51.910;7.724;2024-01-11T09:56:53;102776.84;;;-4.65;95.93
39265;BME280;42646;51.910;7.724;2024-01-11T09:59:23;102776.06;;;-4.54;95.67
39265;BME280;42646;51.910;7.724;2024-01-11T10:01:52;102770.06;;;-4.43;95.28
39265;BME280;42646;51.910;7.724;2024-01-11T10:04:22;102771.00;;;-4.32;94.94
39265;BME280;42646;51.910;7.724;2024-01-11T10:06:50;102769.31;;;-4.23;94.73
39265;BME280;42646;51.910;7.724;2024-01-11T10:09:19;102771.94;;;-4.20;94.44
39265;BME280;42646;51.910;7.724;2024-01-11T10:11:47;102776.28;;;-4.15;94.09
39265;BME280;42646;51.910;7.724;2024-01-11T10:14:15;102771.97;;;-4.10;93.43
39265;BME280;42646;51.910;7.724;2024-01-11T10:16:43;102766.78;;;-4.04;93.08
39265;BME280;42646;51.910;7.724;2024-01-11T10:19:12;102762.50;;;-3.97;92.17
39265;BME280;42646;51.910;7.724;2024-01-11T10:21:43;102765.97;;;-3.92;92.11
39265;BME280;42646;51.910;7.724;2024-01-11T10:24:17;102767.75;;;-3.82;91.67
39265;BME280;42646;51.910;7.724;2024-01-11T10:26:45;102768.66;;;-3.69;91.24
39265;BME280;42646;51.910;7.724;2024-01-11T10:29:13;102773.88;;;-3.61;90.37
39265;BME280;42646;51.910;7.724;2024-01-11T10:31:41;102781.69;;;-3.58;90.21
39265;BME280;42646;51.910;7.724;2024-01-11T10:34:08;102788.66;;;-3.50;89.58
39265;BME280;42646;51.910;7.724;2024-01-11T10:36:36;102789.53;;;-3.40;89.63
39265;BME280;42646;51.910;7.724;2024-01-11T10:39:06;102780.88;;;-3.30;88.84
39265;BME280;42646;51.910;7.724;2024-01-11T10:41:39;102784.38;;;-3.18;88.70
39265;BME280;42646;51.910;7.724;2024-01-11T10:44:14;102795.63;;;-3.09;88.25
39265;BME280;42646;51.910;7.724;2024-01-11T10:46:45;102788.72;;;-2.99;87.84
39265;BME280;42646;51.910;7.724;2024-01-11T10:49:16;102780.91;;;-2.93;87.19
39265;BME280;42646;51.910;7.724;2024-01-11T10:51:49;102773.06;;;-2.85;86.95
39265;BME280;42646;51.910;7.724;2024-01-11T10:54:20;102780.91;;;-2.81;86.21
39265;BME280;42646;51.910;7.724;2024-01-11T10:56:49;102776.53;;;-2.74;85.59
39265;BME280;42646;51.910;7.724;2024-01-11T10:59:18;102773.06;;;-2.73;84.81
39265;BME280;42646;51.910;7.724;2024-01-11T11:01:47;102779.16;;;-2.66;84.79
39265;BME280;42646;51.910;7.724;2024-01-11T11:04:16;102760.91;;;-2.65;84.06
39265;BME280;42646;51.910;7.724;2024-01-11T11:06:49;102753.94;;;-2.57;84.34
39265;BME280;42646;51.910;7.724;2024-01-11T11:09:18;102755.69;;;-2.53;84.56
39265;BME280;42646;51.910;7.724;2024-01-11T11:11:47;102757.41;;;-2.47;84.85
39265;BME280;42646;51.910;7.724;2024-01-11T11:14:16;102759.13;;;-2.38;84.83
39265;BME280;42646;51.910;7.724;2024-01-11T11:16:44;102766.03;;;-2.28;84.88
39265;BME280;42646;51.910;7.724;2024-01-11T11:19:12;102770.34;;;-2.20;85.00
39265;BME280;42646;51.910;7.724;2024-01-11T11:21:44;102768.59;;;-2.10;85.38
39265;BME280;42646;51.910;7.724;2024-01-11T11:24:12;102762.47;;;-2.03;85.06
39265;BME280;42646;51.910;7.724;2024-01-11T11:26:41;102756.38;;;-1.94;85.26
39265;BME280;42646;51.910;7.724;2024-01-11T11:29:09;102758.91;;;-1.85;85.51
39265;BME280;42646;51.910;7.724;2024-01-11T11:31:38;102763.22;;;-1.75;85.41
39265;BME280;42646;51.910;7.724;2024-01-11T11:34:11;102756.25;;;-1.70;85.56
39265;BME280;42646;51.910;7.724;2024-01-11T11:36:39;102770.97;;;-1.61;86.24
39265;BME280;42646;51.910;7.724;2024-01-11T11:39:10;102762.25;;;-1.54;86.27
39265;BME280;42646;51.910;7.724;2024-01-11T11:41:39;102763.06;;;-1.46;86.87
39265;BME280;42646;51.910;7.724;2024-01-11T11:44:12;102756.91;;;-1.37;87.03
39265;BME280;42646;51.910;7.724;2024-01-11T11:46:40;102762.97;;;-1.30;86.99
39265;BME280;42646;51.910;7.724;2024-01-11T11:49:08;102756.81;;;-1.25;87.35
39265;BME280;42646;51.910;7.724;2024-01-11T11:51:39;102759.38;;;-1.19;87.90
39265;BME280;42646;51.910;7.724;2024-01-11T11:54:08;102760.22;;;-1.12;88.58
39265;BME280;42646;51.910;7.724;2024-01-11T11:56:36;102752.28;;;-1.03;88.77
39265;BME280;42646;51.910;7.724;2024-01-11T11:59:04;102754.03;;;-1.00;89.52
39265;BME280;42646;51.910;7.724;2024-01-11T12:01:33;102748.75;;;-0.96;89.92
39265;BME280;42646;51.910;7.724;2024-01-11T12:04:02;102752.16;;;-0.89;90.17
39265;BME280;42646;51.910;7.724;2024-01-11T12:06:30;102756.47;;;-0.82;90.98
39265;BME280;42646;51.910;7.724;2024-01-11T12:08:58;102752.94;;;-0.76;91.08
39265;BME280;42646;51.910;7.724;2024-01-11T12:11:26;102745.94;;;-0.73;91.40
39265;BME280;42646;51.910;7.724;2024-01-11T12:13:53;102734.56;;;-0.69;92.05
39265;BME280;42646;51.910;7.724;2024-01-11T12:16:23;102744.97;;;-0.64;92.25
39265;BME280;42646;51.910;7.724;2024-01-11T12:18:52;102739.72;;;-0.61;92.34
39265;BME280;42646;51.910;7.724;2024-01-11T12:21:20;102744.06;;;-0.59;92.55
39265;BME280;42646;51.910;7.724;2024-01-11T12:23:48;102740.50;;;-0.55;92.96
39265;BME280;42646;51.910;7.724;2024-01-11T12:26:16;102743.09;;;-0.51;93.11
39265;BME280;42646;51.910;7.724;2024-01-11T12:28:48;102737.88;;;-0.51;93.53
39265;BME280;42646;51.910;7.724;2024-01-11T12:31:16;102737.81;;;-0.48;93.54
39265;BME280;42646;51.910;7.724;2024-01-11T12:33:45;102740.44;;;-0.45;94.19
39265;BME280;42646;51.910;7.724;2024-01-11T12:36:15;102738.63;;;-0.42;94.08
39265;BME280;42646;51.910;7.724;2024-01-11T12:38:46;102733.38;;;-0.39;94.46
39265;BME280;42646;51.910;7.724;2024-01-11T12:41:19;102735.94;;;-0.36;94.73
39265;BME280;42646;51.910;7.724;2024-01-11T12:43:48;102742.88;;;-0.32;94.73
39265;BME280;42646;51.910;7.724;2024-01-11T12:46:16;102743.72;;;-0.28;95.05
39265;BME280;42646;51.910;7.724;2024-01-11T12:48:44;102736.69;;;-0.24;95.22
39265;BME280;42646;51.910;7.724;2024-01-11T12:51:12;102729.72;;;-0.22;95.32
39265;BME280;42646;51.910;7.724;2024-01-11T12:53:48;102734.03;;;-0.20;95.33
39265;BME280;42646;51.910;7.724;2024-01-11T12:56:17;102732.25;;;-0.18;95.28